sensor_id;sensor_type;location;lat;lon;timestamp;pressure;altitude;pressure_sealevel;temperature;humidity
76337;BME280;65157;50.082;18.178;2023-03-01T00:00:01;100577.95;;;-1.28;71.21
76337;BME280;65157;50.082;18.178;2023-03-01T00:02:30;100583.80;;;-1.29;71.62
76337;BME280;65157;50.082;18.178;2023-03-01T00:04:57;100585.33;;;-1.30;72.02
76337;BME280;65157;50.082;18.178;2023-03-01T00:07:23;100585.13;;;-1.32;71.94
76337;BME280;65157;50.082;18.178;2023-03-01T00:09:49;100582.98;;;-1.33;71.76
76337;BME280;65157;50.082;18.178;2023-03-01T00:12:15;100587.88;;;-1.32;72.00
76337;BME280;65157;50.082;18.178;2023-03-01T00:14:41;100586.02;;;-1.31;72.27
76337;BME280;65157;50.082;18.178;2023-03-01T00:17:07;100587.97;;;-1.29;72.31
76337;BME280;65157;50.082;18.178;2023-03-01T00:19:33;100589.01;;;-1.29;72.39
76337;BME280;65157;50.082;18.178;2023-03-01T00:21:59;100590.09;;;-1.27;72.41
76337;BME280;65157;50.082;18.178;2023-03-01T00:24:25;100587.33;;;-1.27;72.23
76337;BME280;65157;50.082;18.178;2023-03-01T00:26:55;100588.67;;;-1.28;72.19
76337;BME280;65157;50.082;18.178;2023-03-01T00:29:23;100585.34;;;-1.30;72.37
76337;BME280;65157;50.082;18.178;2023-03-01T00:31:49;100589.27;;;-1.32;72.45
76337;BME280;65157;50.082;18.178;2023-03-01T00:34:15;100588.15;;;-1.35;72.52
76337;BME280;65157;50.082;18.178;2023-03-01T00:36:44;100583.38;;;-1.38;72.41
76337;BME280;65157;50.082;18.178;2023-03-01T00:39:13;100579.46;;;-1.42;72.46
76337;BME280;65157;50.082;18.178;2023-03-01T00:41:39;100580.58;;;-1.46;72.47
76337;BME280;65157;50.082;18.178;2023-03-01T00:44:05;100581.02;;;-1.49;72.50
76337;BME280;65157;50.082;18.178;2023-03-01T00:46:31;100577.67;;;-1.50;72.49
76337;BME280;65157;50.082;18.178;2023-03-01T00:49:00;100572.95;;;-1.52;72.64
76337;BME280;65157;50.082;18.178;2023-03-01T00:51:27;100572.95;;;-1.52;72.39
76337;BME280;65157;50.082;18.178;2023-03-01T00:53:56;100573.17;;;-1.50;72.45
76337;BME280;65157;50.082;18.178;2023-03-01T00:56:23;100569.92;;;-1.49;72.21
76337;BME280;65157;50.082;18.178;2023-03-01T00:58:49;100559.79;;;-1.53;72.17
76337;BME280;65157;50.082;18.178;2023-03-01T01:01:18;100560.40;;;-1.49;72.00
76337;BME280;65157;50.082;18.178;2023-03-01T01:03:47;100553.29;;;-1.50;72.04
76337;BME280;65157;50.082;18.178;2023-03-01T01:06:16;100552.20;;;-1.51;71.93
76337;BME280;65157;50.082;18.178;2023-03-01T01:08:43;100551.95;;;-1.54;72.06
76337;BME280;65157;50.082;18.178;2023-03-01T01:11:10;100547.23;;;-1.56;72.08
76337;BME280;65157;50.082;18.178;2023-03-01T01:13:37;100554.79;;;-1.58;72.14
76337;BME280;65157;50.082;18.178;2023-03-01T01:16:03;100560.23;;;-1.61;72.28
76337;BME280;65157;50.082;18.178;2023-03-01T01:18:29;100566.40;;;-1.63;72.20
76337;BME280;65157;50.082;18.178;2023-03-01T01:20:56;100562.50;;;-1.67;72.18
76337;BME280;65157;50.082;18.178;2023-03-01T01:23:22;100563.99;;;-1.70;72.21
76337;BME280;65157;50.082;18.178;2023-03-01T01:25:48;100563.27;;;-1.71;72.24
76337;BME280;65157;50.082;18.178;2023-03-01T01:28:14;100566.88;;;-1.72;72.15
76337;BME280;65157;50.082;18.178;2023-03-01T01:30:40;100566.68;;;-1.73;72.20
76337;BME280;65157;50.082;18.178;2023-03-01T01:33:06;100561.13;;;-1.73;72.07
76337;BME280;65157;50.082;18.178;2023-03-01T01:35:31;100556.63;;;-1.73;72.05
76337;BME280;65157;50.082;18.178;2023-03-01T01:37:57;100551.95;;;-1.73;72.08
76337;BME280;65157;50.082;18.178;2023-03-01T01:40:23;100552.69;;;-1.72;71.93
76337;BME280;65157;50.082;18.178;2023-03-01T01:42:49;100545.08;;;-1.72;72.04
76337;BME280;65157;50.082;18.178;2023-03-01T01:47:51;100538.88;;;-1.70;72.06
76337;BME280;65157;50.082;18.178;2023-03-01T01:50:18;100537.98;;;-1.71;72.00
76337;BME280;65157;50.082;18.178;2023-03-01T01:52:45;100541.43;;;-1.72;72.20
76337;BME280;65157;50.082;18.178;2023-03-01T01:55:19;100533.71;;;-1.76;72.22
76337;BME280;65157;50.082;18.178;2023-03-01T01:57:49;100536.51;;;-1.75;72.15
76337;BME280;65157;50.082;18.178;2023-03-01T02:00:20;100532.77;;;-1.78;71.89
76337;BME280;65157;50.082;18.178;2023-03-01T02:02:49;100526.81;;;-1.81;71.92
76337;BME280;65157;50.082;18.178;2023-03-01T02:08:03;100519.27;;;-1.92;72.05
76337;BME280;65157;50.082;18.178;2023-03-01T02:10:32;100522.74;;;-1.90;71.99
76337;BME280;65157;50.082;18.178;2023-03-01T02:13:00;100526.66;;;-1.93;72.02
76337;BME280;65157;50.082;18.178;2023-03-01T02:15:32;100522.30;;;-1.94;71.88
76337;BME280;65157;50.082;18.178;2023-03-01T02:18:00;100517.62;;;-1.94;72.12
76337;BME280;65157;50.082;18.178;2023-03-01T02:23:04;100514.46;;;-1.96;72.02
76337;BME280;65157;50.082;18.178;2023-03-01T02:25:51;100515.66;;;-1.96;71.92
76337;BME280;65157;50.082;18.178;2023-03-01T02:28:38;100511.33;;;-1.96;71.74
76337;BME280;65157;50.082;18.178;2023-03-01T02:31:07;100510.61;;;-1.98;71.66
76337;BME280;65157;50.082;18.178;2023-03-01T02:33:34;100505.15;;;-2.00;71.46
76337;BME280;65157;50.082;18.178;2023-03-01T02:36:00;100504.73;;;-2.04;71.44
76337;BME280;65157;50.082;18.178;2023-03-01T02:38:32;100499.26;;;-2.07;71.45
76337;BME280;65157;50.082;18.178;2023-03-01T02:41:02;100491.71;;;-2.11;71.47
76337;BME280;65157;50.082;18.178;2023-03-01T02:43:31;100496.33;;;-2.13;71.87
76337;BME280;65157;50.082;18.178;2023-03-01T02:46:12;100493.95;;;-2.17;71.67
76337;BME280;65157;50.082;18.178;2023-03-01T02:48:46;100499.06;;;-2.20;71.60
76337;BME280;65157;50.082;18.178;2023-03-01T02:53:59;100506.79;;;-2.28;72.04
76337;BME280;65157;50.082;18.178;2023-03-01T02:56:31;100498.45;;;-2.35;72.14
76337;BME280;65157;50.082;18.178;2023-03-01T02:58:57;100507.69;;;-2.33;72.17
76337;BME280;65157;50.082;18.178;2023-03-01T03:01:23;100507.96;;;-2.35;72.34
76337;BME280;65157;50.082;18.178;2023-03-01T03:03:49;100507.55;;;-2.37;72.60
76337;BME280;65157;50.082;18.178;2023-03-01T03:06:15;100507.69;;;-2.39;72.70
76337;BME280;65157;50.082;18.178;2023-03-01T03:08:41;100505.25;;;-2.39;73.01
76337;BME280;65157;50.082;18.178;2023-03-01T03:11:07;100504.85;;;-2.41;72.99
76337;BME280;65157;50.082;18.178;2023-03-01T03:13:34;100499.79;;;-2.42;72.88
76337;BME280;65157;50.082;18.178;2023-03-01T03:16:02;100498.52;;;-2.44;72.92
76337;BME280;65157;50.082;18.178;2023-03-01T03:18:28;100494.98;;;-2.47;72.98
76337;BME280;65157;50.082;18.178;2023-03-01T03:20:54;100499.11;;;-2.48;72.85
76337;BME280;65157;50.082;18.178;2023-03-01T03:23:21;100503.58;;;-2.49;72.89
76337;BME280;65157;50.082;18.178;2023-03-01T03:25:49;100504.09;;;-2.49;72.94
76337;BME280;65157;50.082;18.178;2023-03-01T03:28:15;100500.10;;;-2.50;73.25
76337;BME280;65157;50.082;18.178;2023-03-01T03:30:42;100500.25;;;-2.50;73.08
76337;BME280;65157;50.082;18.178;2023-03-01T03:33:10;100496.12;;;-2.50;73.27
76337;BME280;65157;50.082;18.178;2023-03-01T03:35:44;100495.41;;;-2.50;73.16
76337;BME280;65157;50.082;18.178;2023-03-01T03:38:14;100492.78;;;-2.51;73.18
76337;BME280;65157;50.082;18.178;2023-03-01T03:40:46;100494.46;;;-2.53;73.05
76337;BME280;65157;50.082;18.178;2023-03-01T03:43:20;100500.27;;;-2.55;73.09
76337;BME280;65157;50.082;18.178;2023-03-01T03:45:47;100497.65;;;-2.56;73.00
76337;BME280;65157;50.082;18.178;2023-03-01T03:48:14;100493.77;;;-2.58;72.75
76337;BME280;65157;50.082;18.178;2023-03-01T03:50:40;100482.24;;;-2.68;72.80
76337;BME280;65157;50.082;18.178;2023-03-01T03:53:09;100491.02;;;-2.64;72.87
76337;BME280;65157;50.082;18.178;2023-03-01T03:55:35;100480.60;;;-2.71;72.99
76337;BME280;65157;50.082;18.178;2023-03-01T03:58:02;100489.96;;;-2.64;73.23
76337;BME280;65157;50.082;18.178;2023-03-01T04:00:41;100491.27;;;-2.67;73.54
76337;BME280;65157;50.082;18.178;2023-03-01T04:03:08;100491.66;;;-2.71;73.82
76337;BME280;65157;50.082;18.178;2023-03-01T04:05:38;100492.11;;;-2.73;73.76
76337;BME280;65157;50.082;18.178;2023-03-01T04:08:11;100492.88;;;-2.76;73.73
76337;BME280;65157;50.082;18.178;2023-03-01T04:10:46;100486.13;;;-2.82;73.54
76337;BME280;65157;50.082;18.178;2023-03-01T04:13:17;100485.67;;;-2.80;73.81
76337;BME280;65157;50.082;18.178;2023-03-01T04:15:44;100486.54;;;-2.85;73.83
76337;BME280;65157;50.082;18.178;2023-03-01T04:18:13;100494.45;;;-2.81;73.86
76337;BME280;65157;50.082;18.178;2023-03-01T04:20:39;100495.38;;;-2.79;73.94
76337;BME280;65157;50.082;18.178;2023-03-01T04:23:13;100495.06;;;-2.78;73.98
76337;BME280;65157;50.082;18.178;2023-03-01T04:25:54;100491.31;;;-2.76;74.20
76337;BME280;65157;50.082;18.178;2023-03-01T04:28:29;100489.84;;;-2.80;74.16
76337;BME280;65157;50.082;18.178;2023-03-01T04:30:57;100493.91;;;-2.81;74.27
76337;BME280;65157;50.082;18.178;2023-03-01T04:33:24;100495.41;;;-2.84;74.53
76337;BME280;65157;50.082;18.178;2023-03-01T04:35:51;100498.88;;;-2.89;74.48
76337;BME280;65157;50.082;18.178;2023-03-01T04:38:19;100504.25;;;-2.94;74.45
76337;BME280;65157;50.082;18.178;2023-03-01T04:40:45;100503.24;;;-2.98;74.06
76337;BME280;65157;50.082;18.178;2023-03-01T04:43:15;100505.84;;;-3.03;73.99
76337;BME280;65157;50.082;18.178;2023-03-01T04:45:41;100504.61;;;-3.04;73.83
76337;BME280;65157;50.082;18.178;2023-03-01T04:48:08;100501.98;;;-3.05;73.84
76337;BME280;65157;50.082;18.178;2023-03-01T04:50:42;100502.27;;;-3.07;74.11
76337;BME280;65157;50.082;18.178;2023-03-01T04:53:17;100506.60;;;-3.07;74.03
76337;BME280;65157;50.082;18.178;2023-03-01T04:55:46;100496.98;;;-3.05;74.09
76337;BME280;65157;50.082;18.178;2023-03-01T04:58:12;100497.67;;;-3.05;74.11
76337;BME280;65157;50.082;18.178;2023-03-01T05:00:47;100491.64;;;-3.10;74.01
76337;BME280;65157;50.082;18.178;2023-03-01T05:03:19;100492.63;;;-3.11;73.95
76337;BME280;65157;50.082;18.178;2023-03-01T05:05:46;100493.32;;;-3.11;73.93
76337;BME280;65157;50.082;18.178;2023-03-01T05:08:13;100499.53;;;-3.17;73.77
76337;BME280;65157;50.082;18.178;2023-03-01T05:10:45;100504.33;;;-3.23;73.85
76337;BME280;65157;50.082;18.178;2023-03-01T05:13:21;100504.33;;;-3.28;73.77
76337;BME280;65157;50.082;18.178;2023-03-01T05:15:54;100504.27;;;-3.35;73.71
76337;BME280;65157;50.082;18.178;2023-03-01T05:18:24;100501.85;;;-3.40;73.70
76337;BME280;65157;50.082;18.178;2023-03-01T05:20:52;100500.71;;;-3.49;74.01
76337;BME280;65157;50.082;18.178;2023-03-01T05:23:22;100501.61;;;-3.53;73.92
76337;BME280;65157;50.082;18.178;2023-03-01T05:25:50;100496.39;;;-3.59;74.12
76337;BME280;65157;50.082;18.178;2023-03-01T05:28:22;100491.00;;;-3.66;74.38
76337;BME280;65157;50.082;18.178;2023-03-01T05:30:48;100488.83;;;-3.68;74.71
76337;BME280;65157;50.082;18.178;2023-03-01T05:33:14;100479.91;;;-3.76;75.00
76337;BME280;65157;50.082;18.178;2023-03-01T05:35:44;100492.48;;;-3.72;75.12
76337;BME280;65157;50.082;18.178;2023-03-01T05:38:12;100493.33;;;-3.73;75.27
76337;BME280;65157;50.082;18.178;2023-03-01T05:40:40;100502.50;;;-3.72;75.38
76337;BME280;65157;50.082;18.178;2023-03-01T05:43:06;100501.95;;;-3.73;75.45
76337;BME280;65157;50.082;18.178;2023-03-01T05:45:32;100503.06;;;-3.75;75.52
76337;BME280;65157;50.082;18.178;2023-03-01T05:48:03;100503.40;;;-3.76;75.79
76337;BME280;65157;50.082;18.178;2023-03-01T05:50:33;100508.91;;;-3.76;75.89
76337;BME280;65157;50.082;18.178;2023-03-01T05:53:03;100508.58;;;-3.75;76.19
76337;BME280;65157;50.082;18.178;2023-03-01T05:55:30;100509.98;;;-3.75;76.19
76337;BME280;65157;50.082;18.178;2023-03-01T05:57:59;100509.98;;;-3.75;76.43
76337;BME280;65157;50.082;18.178;2023-03-01T06:00:27;100510.05;;;-3.73;76.61
76337;BME280;65157;50.082;18.178;2023-03-01T06:02:55;100504.48;;;-3.74;76.77
76337;BME280;65157;50.082;18.178;2023-03-01T06:05:22;100512.14;;;-3.68;76.76
76337;BME280;65157;50.082;18.178;2023-03-01T06:07:49;100520.71;;;-3.64;76.63
76337;BME280;65157;50.082;18.178;2023-03-01T06:10:21;100524.53;;;-3.58;76.36
76337;BME280;65157;50.082;18.178;2023-03-01T06:12:49;100521.29;;;-3.52;76.57
76337;BME280;65157;50.082;18.178;2023-03-01T06:15:21;100522.72;;;-3.46;76.98
76337;BME280;65157;50.082;18.178;2023-03-01T06:17:47;100524.34;;;-3.39;77.12
76337;BME280;65157;50.082;18.178;2023-03-01T06:20:19;100520.25;;;-3.32;77.01
76337;BME280;65157;50.082;18.178;2023-03-01T06:22:47;100514.65;;;-3.24;76.83
76337;BME280;65157;50.082;18.178;2023-03-01T06:25:16;100511.35;;;-3.14;76.82
76337;BME280;65157;50.082;18.178;2023-03-01T06:27:42;100511.38;;;-3.03;76.97
76337;BME280;65157;50.082;18.178;2023-03-01T06:30:10;100507.36;;;-2.93;77.20
76337;BME280;65157;50.082;18.178;2023-03-01T06:32:37;100510.30;;;-2.82;76.76
76337;BME280;65157;50.082;18.178;2023-03-01T06:35:05;100512.09;;;-2.70;76.92
76337;BME280;65157;50.082;18.178;2023-03-01T06:37:34;100516.42;;;-2.58;76.71
76337;BME280;65157;50.082;18.178;2023-03-01T06:40:00;100510.53;;;-2.47;76.86
76337;BME280;65157;50.082;18.178;2023-03-01T06:42:26;100508.41;;;-2.37;77.16
76337;BME280;65157;50.082;18.178;2023-03-01T06:44:53;100513.98;;;-2.24;77.52
76337;BME280;65157;50.082;18.178;2023-03-01T06:47:19;100511.99;;;-2.15;77.34
76337;BME280;65157;50.082;18.178;2023-03-01T06:49:49;100507.50;;;-2.09;77.20
76337;BME280;65157;50.082;18.178;2023-03-01T06:52:21;100508.55;;;-1.97;76.94
76337;BME280;65157;50.082;18.178;2023-03-01T06:54:47;100497.85;;;-1.83;77.22
76337;BME280;65157;50.082;18.178;2023-03-01T06:57:15;100497.00;;;-1.70;76.67
76337;BME280;65157;50.082;18.178;2023-03-01T06:59:41;100494.20;;;-1.58;76.98
76337;BME280;65157;50.082;18.178;2023-03-01T07:02:10;100499.67;;;-1.41;77.05
76337;BME280;65157;50.082;18.178;2023-03-01T07:04:36;100490.11;;;-1.30;76.88
76337;BME280;65157;50.082;18.178;2023-03-01T07:07:02;100499.71;;;-1.05;76.60
76337;BME280;65157;50.082;18.178;2023-03-01T07:09:28;100492.81;;;-0.89;76.51
76337;BME280;65157;50.082;18.178;2023-03-01T07:11:56;100490.41;;;-0.73;75.70
76337;BME280;65157;50.082;18.178;2023-03-01T07:14:23;100495.79;;;-0.59;75.75
76337;BME280;65157;50.082;18.178;2023-03-01T07:16:59;100487.45;;;-0.43;75.33
76337;BME280;65157;50.082;18.178;2023-03-01T07:19:39;100485.91;;;-0.27;74.89
76337;BME280;65157;50.082;18.178;2023-03-01T07:22:05;100484.15;;;-0.11;74.82
76337;BME280;65157;50.082;18.178;2023-03-01T07:24:31;100483.61;;;0.06;74.42
76337;BME280;65157;50.082;18.178;2023-03-01T07:26:58;100483.54;;;0.20;73.78
76337;BME280;65157;50.082;18.178;2023-03-01T07:29:26;100481.91;;;0.25;73.31
76337;BME280;65157;50.082;18.178;2023-03-01T07:31:53;100478.27;;;0.35;73.41
76337;BME280;65157;50.082;18.178;2023-03-01T07:34:22;100479.25;;;0.50;73.38
76337;BME280;65157;50.082;18.178;2023-03-01T07:36:48;100474.14;;;0.68;72.86
76337;BME280;65157;50.082;18.178;2023-03-01T07:39:15;100477.02;;;0.83;72.67
76337;BME280;65157;50.082;18.178;2023-03-01T07:41:41;100473.84;;;1.01;72.13
76337;BME280;65157;50.082;18.178;2023-03-01T07:44:07;100470.11;;;1.18;71.85
76337;BME280;65157;50.082;18.178;2023-03-01T07:46:33;100460.54;;;1.29;71.75
76337;BME280;65157;50.082;18.178;2023-03-01T07:49:02;100450.33;;;1.45;71.87
76337;BME280;65157;50.082;18.178;2023-03-01T07:51:28;100456.86;;;1.66;71.46
76337;BME280;65157;50.082;18.178;2023-03-01T07:53:57;100454.27;;;1.80;71.10
76337;BME280;65157;50.082;18.178;2023-03-01T07:56:23;100450.77;;;1.94;70.73
76337;BME280;65157;50.082;18.178;2023-03-01T07:58:49;100452.85;;;2.08;70.34
76337;BME280;65157;50.082;18.178;2023-03-01T08:01:18;100446.53;;;2.20;70.05
76337;BME280;65157;50.082;18.178;2023-03-01T08:03:44;100438.50;;;2.34;69.48
76337;BME280;65157;50.082;18.178;2023-03-01T08:06:12;100435.27;;;2.43;68.72
76337;BME280;65157;50.082;18.178;2023-03-01T08:08:45;100439.58;;;2.56;68.51
76337;BME280;65157;50.082;18.178;2023-03-01T08:11:13;100441.94;;;2.66;67.92
76337;BME280;65157;50.082;18.178;2023-03-01T08:13:40;100434.66;;;2.73;67.76
76337;BME280;65157;50.082;18.178;2023-03-01T08:16:11;100431.40;;;2.78;67.24
76337;BME280;65157;50.082;18.178;2023-03-01T08:18:38;100425.16;;;2.83;66.46
76337;BME280;65157;50.082;18.178;2023-03-01T08:21:06;100424.52;;;2.91;66.12
76337;BME280;65157;50.082;18.178;2023-03-01T08:23:33;100419.31;;;2.93;65.49
76337;BME280;65157;50.082;18.178;2023-03-01T08:26:07;100423.19;;;2.98;64.92
76337;BME280;65157;50.082;18.178;2023-03-01T08:28:49;100420.05;;;2.98;64.25
76337;BME280;65157;50.082;18.178;2023-03-01T08:31:41;100400.29;;;2.90;64.63
76337;BME280;65157;50.082;18.178;2023-03-01T08:34:11;100416.38;;;2.97;64.36
76337;BME280;65157;50.082;18.178;2023-03-01T08:36:55;100417.05;;;2.93;64.46
76337;BME280;65157;50.082;18.178;2023-03-01T08:39:22;100421.25;;;2.94;65.24
76337;BME280;65157;50.082;18.178;2023-03-01T08:41:51;100420.95;;;3.02;65.15
76337;BME280;65157;50.082;18.178;2023-03-01T08:44:18;100415.27;;;3.13;65.70
76337;BME280;65157;50.082;18.178;2023-03-01T08:46:45;100409.63;;;3.33;66.08
76337;BME280;65157;50.082;18.178;2023-03-01T08:49:14;100409.20;;;3.53;65.96
76337;BME280;65157;50.082;18.178;2023-03-01T08:51:41;100409.08;;;3.64;65.45
76337;BME280;65157;50.082;18.178;2023-03-01T08:54:23;100414.20;;;3.78;65.62
76337;BME280;65157;50.082;18.178;2023-03-01T08:57:01;100383.47;;;3.72;65.25
76337;BME280;65157;50.082;18.178;2023-03-01T08:59:30;100404.67;;;4.06;65.27
76337;BME280;65157;50.082;18.178;2023-03-01T09:01:56;100407.69;;;4.25;64.86
76337;BME280;65157;50.082;18.178;2023-03-01T09:04:28;100408.42;;;4.44;64.26
76337;BME280;65157;50.082;18.178;2023-03-01T09:06:56;100406.70;;;4.61;64.47
76337;BME280;65157;50.082;18.178;2023-03-01T09:09:22;100409.83;;;4.79;63.97
76337;BME280;65157;50.082;18.178;2023-03-01T09:11:48;100409.83;;;4.94;62.89
76337;BME280;65157;50.082;18.178;2023-03-01T09:14:21;100404.23;;;5.03;62.82
76337;BME280;65157;50.082;18.178;2023-03-01T09:16:47;100402.45;;;5.14;62.17
76337;BME280;65157;50.082;18.178;2023-03-01T09:19:14;100402.61;;;5.25;62.32
76337;BME280;65157;50.082;18.178;2023-03-01T09:21:45;100403.27;;;5.41;61.78
76337;BME280;65157;50.082;18.178;2023-03-01T09:24:25;100401.64;;;5.57;61.36
76337;BME280;65157;50.082;18.178;2023-03-01T09:26:54;100396.70;;;5.69;60.58
76337;BME280;65157;50.082;18.178;2023-03-01T09:29:21;100399.44;;;5.80;60.24
76337;BME280;65157;50.082;18.178;2023-03-01T09:31:48;100393.46;;;5.92;59.80
76337;BME280;65157;50.082;18.178;2023-03-01T09:34:17;100391.65;;;6.02;59.46
76337;BME280;65157;50.082;18.178;2023-03-01T09:36:43;100380.95;;;6.06;58.44
76337;BME280;65157;50.082;18.178;2023-03-01T09:39:09;100391.20;;;6.21;58.30
76337;BME280;65157;50.082;18.178;2023-03-01T09:44:31;100362.51;;;6.36;57.25
76337;BME280;65157;50.082;18.178;2023-03-01T09:47:04;100378.44;;;6.62;58.07
76337;BME280;65157;50.082;18.178;2023-03-01T09:49:33;100378.27;;;6.80;57.99
76337;BME280;65157;50.082;18.178;2023-03-01T09:52:12;100378.60;;;7.03;57.17
76337;BME280;65157;50.082;18.178;2023-03-01T09:54:45;100381.45;;;7.16;56.57
76337;BME280;65157;50.082;18.178;2023-03-01T09:57:26;100378.15;;;7.29;56.30
76337;BME280;65157;50.082;18.178;2023-03-01T10:00:36;100370.11;;;7.42;56.00
76337;BME280;65157;50.082;18.178;2023-03-01T10:03:24;100374.45;;;7.60;54.43
76337;BME280;65157;50.082;18.178;2023-03-01T10:06:14;100375.69;;;7.73;55.21
76337;BME280;65157;50.082;18.178;2023-03-01T10:11:22;100379.54;;;8.02;54.59
76337;BME280;65157;50.082;18.178;2023-03-01T10:19:31;100367.34;;;8.43;52.75
76337;BME280;65157;50.082;18.178;2023-03-01T10:22:05;100361.44;;;8.49;51.97
76337;BME280;65157;50.082;18.178;2023-03-01T10:24:38;100369.71;;;8.60;51.80
76337;BME280;65157;50.082;18.178;2023-03-01T10:27:09;100361.67;;;8.68;51.59
76337;BME280;65157;50.082;18.178;2023-03-01T10:32:44;100355.07;;;8.84;51.21
76337;BME280;65157;50.082;18.178;2023-03-01T10:35:25;100355.45;;;8.91;50.94
76337;BME280;65157;50.082;18.178;2023-03-01T10:40:30;100346.05;;;9.14;50.65
76337;BME280;65157;50.082;18.178;2023-03-01T10:43:02;100343.52;;;9.26;50.48
76337;BME280;65157;50.082;18.178;2023-03-01T10:48:25;100340.77;;;9.41;49.53
76337;BME280;65157;50.082;18.178;2023-03-01T10:58:35;100332.92;;;9.37;47.84
76337;BME280;65157;50.082;18.178;2023-03-01T11:04:03;100327.80;;;9.37;48.59
76337;BME280;65157;50.082;18.178;2023-03-01T11:06:29;100324.09;;;9.47;48.50
76337;BME280;65157;50.082;18.178;2023-03-01T11:08:55;100319.53;;;9.53;47.20
76337;BME280;65157;50.082;18.178;2023-03-01T11:11:29;100319.08;;;9.50;47.47
76337;BME280;65157;50.082;18.178;2023-03-01T11:14:03;100311.90;;;9.56;47.41
76337;BME280;65157;50.082;18.178;2023-03-01T11:16:33;100311.27;;;9.61;46.50
76337;BME280;65157;50.082;18.178;2023-03-01T11:22:04;100299.13;;;9.69;46.70
76337;BME280;65157;50.082;18.178;2023-03-01T11:24:40;100288.48;;;9.72;45.53
76337;BME280;65157;50.082;18.178;2023-03-01T11:27:38;100288.58;;;9.75;46.40
76337;BME280;65157;50.082;18.178;2023-03-01T11:30:26;100281.35;;;9.83;46.43
76337;BME280;65157;50.082;18.178;2023-03-01T11:36:00;100280.06;;;10.00;45.53
76337;BME280;65157;50.082;18.178;2023-03-01T11:38:32;100278.56;;;10.04;46.13
76337;BME280;65157;50.082;18.178;2023-03-01T11:41:06;100276.83;;;10.10;46.36
76337;BME280;65157;50.082;18.178;2023-03-01T11:55:25;100264.81;;;10.34;45.96
76337;BME280;65157;50.082;18.178;2023-03-01T12:03:43;100249.95;;;10.63;44.88
76337;BME280;65157;50.082;18.178;2023-03-01T12:17:31;100243.52;;;10.46;44.71
76337;BME280;65157;50.082;18.178;2023-03-01T12:20:11;100244.05;;;10.46;45.13
76337;BME280;65157;50.082;18.178;2023-03-01T12:23:15;100233.00;;;10.43;44.52
76337;BME280;65157;50.082;18.178;2023-03-01T12:26:17;100235.80;;;10.44;45.06
76337;BME280;65157;50.082;18.178;2023-03-01T12:28:52;100234.03;;;10.44;44.73
76337;BME280;65157;50.082;18.178;2023-03-01T12:34:45;100229.49;;;10.42;44.53
76337;BME280;65157;50.082;18.178;2023-03-01T12:37:35;100225.47;;;10.41;44.96
76337;BME280;65157;50.082;18.178;2023-03-01T12:43:11;100222.52;;;10.45;44.98
76337;BME280;65157;50.082;18.178;2023-03-01T12:46:03;100216.16;;;10.45;44.62
76337;BME280;65157;50.082;18.178;2023-03-01T12:51:22;100199.41;;;10.51;45.51
76337;BME280;65157;50.082;18.178;2023-03-01T12:53:53;100194.94;;;10.60;45.51
76337;BME280;65157;50.082;18.178;2023-03-01T12:56:27;100184.74;;;10.59;45.42
76337;BME280;65157;50.082;18.178;2023-03-01T12:59:15;100195.06;;;10.61;44.78
76337;BME280;65157;50.082;18.178;2023-03-01T13:02:19;100191.05;;;10.66;45.68
76337;BME280;65157;50.082;18.178;2023-03-01T13:07:43;100186.30;;;10.66;44.04
76337;BME280;65157;50.082;18.178;2023-03-01T13:10:29;100187.24;;;10.64;44.70
76337;BME280;65157;50.082;18.178;2023-03-01T13:15:25;100183.64;;;10.54;44.47
76337;BME280;65157;50.082;18.178;2023-03-01T13:20:20;100184.81;;;10.49;45.40
76337;BME280;65157;50.082;18.178;2023-03-01T13:23:25;100182.55;;;10.55;45.23
76337;BME280;65157;50.082;18.178;2023-03-01T13:26:18;100185.27;;;10.58;44.58
76337;BME280;65157;50.082;18.178;2023-03-01T13:34:01;100167.48;;;10.63;44.80
76337;BME280;65157;50.082;18.178;2023-03-01T13:46:52;100151.02;;;10.39;44.54
76337;BME280;65157;50.082;18.178;2023-03-01T13:49:22;100156.96;;;10.41;44.31
76337;BME280;65157;50.082;18.178;2023-03-01T13:51:50;100157.71;;;10.34;45.09
76337;BME280;65157;50.082;18.178;2023-03-01T13:54:32;100164.51;;;10.37;44.92
76337;BME280;65157;50.082;18.178;2023-03-01T13:57:00;100166.80;;;10.37;45.04
76337;BME280;65157;50.082;18.178;2023-03-01T13:59:26;100159.05;;;10.43;45.13
76337;BME280;65157;50.082;18.178;2023-03-01T14:01:56;100153.45;;;10.54;45.28
76337;BME280;65157;50.082;18.178;2023-03-01T14:04:30;100146.70;;;10.61;45.06
76337;BME280;65157;50.082;18.178;2023-03-01T14:07:16;100143.31;;;10.63;44.50
76337;BME280;65157;50.082;18.178;2023-03-01T14:09:46;100141.66;;;10.52;44.35
76337;BME280;65157;50.082;18.178;2023-03-01T14:12:28;100138.91;;;10.56;45.11
76337;BME280;65157;50.082;18.178;2023-03-01T14:20:11;100142.02;;;10.71;43.53
76337;BME280;65157;50.082;18.178;2023-03-01T14:22:40;100145.26;;;10.63;43.70
76337;BME280;65157;50.082;18.178;2023-03-01T14:25:31;100140.23;;;10.65;44.50
76337;BME280;65157;50.082;18.178;2023-03-01T14:30:43;100128.42;;;10.70;44.93
76337;BME280;65157;50.082;18.178;2023-03-01T14:38:44;100123.84;;;10.77;43.40
76337;BME280;65157;50.082;18.178;2023-03-01T14:41:25;100117.89;;;10.81;42.82
76337;BME280;65157;50.082;18.178;2023-03-01T14:43:55;100125.83;;;10.88;42.36
76337;BME280;65157;50.082;18.178;2023-03-01T14:51:38;100121.44;;;10.68;41.57
76337;BME280;65157;50.082;18.178;2023-03-01T14:54:20;100126.38;;;10.56;42.08
76337;BME280;65157;50.082;18.178;2023-03-01T14:56:47;100124.11;;;10.43;41.92
76337;BME280;65157;50.082;18.178;2023-03-01T14:59:14;100122.05;;;10.27;41.49
76337;BME280;65157;50.082;18.178;2023-03-01T15:01:41;100119.17;;;10.09;41.76
76337;BME280;65157;50.082;18.178;2023-03-01T15:04:12;100122.00;;;9.95;42.31
76337;BME280;65157;50.082;18.178;2023-03-01T15:06:38;100122.38;;;9.81;42.25